sensor_id;sensor_type;location;lat;lon;timestamp;P1;durP1;ratioP1;P2;durP2;ratioP2
11396;SDS011;5754;43.726;7.416;2024-03-25T00:02:21;95.77;;;91.57;;
11396;SDS011;5754;43.726;7.416;2024-03-25T00:04:56;101.70;;;97.20;;
11396;SDS011;5754;43.726;7.416;2024-03-25T00:07:31;98.53;;;94.30;;
11396;SDS011;5754;43.726;7.416;2024-03-25T00:10:06;99.43;;;95.23;;
11396;SDS011;5754;43.726;7.416;2024-03-25T00:12:42;98.93;;;94.20;;
11396;SDS011;5754;43.726;7.416;2024-03-25T00:15:18;99.90;;;95.47;;
11396;SDS011;5754;43.726;7.416;2024-03-25T00:17:53;98.73;;;94.43;;
11396;SDS011;5754;43.726;7.416;2024-03-25T00:20:27;100.23;;;95.83;;
11396;SDS011;5754;43.726;7.416;2024-03-25T00:23:01;100.47;;;96.13;;
11396;SDS011;5754;43.726;7.416;2024-03-25T00:25:36;103.60;;;98.80;;
11396;SDS011;5754;43.726;7.416;2024-03-25T00:28:13;99.27;;;94.97;;
11396;SDS011;5754;43.726;7.416;2024-03-25T00:30:47;101.30;;;97.03;;
11396;SDS011;5754;43.726;7.416;2024-03-25T00:33:24;102.80;;;98.40;;
11396;SDS011;5754;43.726;7.416;2024-03-25T00:35:59;101.30;;;97.00;;
11396;SDS011;5754;43.726;7.416;2024-03-25T00:38:33;101.07;;;96.77;;
11396;SDS011;5754;43.726;7.416;2024-03-25T00:41:09;102.70;;;98.10;;
11396;SDS011;5754;43.726;7.416;2024-03-25T00:43:44;100.13;;;95.83;;
11396;SDS011;5754;43.726;7.416;2024-03-25T00:46:19;99.07;;;94.67;;
11396;SDS011;5754;43.726;7.416;2024-03-25T00:48:53;97.57;;;93.23;;
11396;SDS011;5754;43.726;7.416;2024-03-25T00:51:28;100.23;;;95.73;;
11396;SDS011;5754;43.726;7.416;2024-03-25T00:54:03;97.80;;;93.70;;
11396;SDS011;5754;43.726;7.416;2024-03-25T00:56:38;96.77;;;92.67;;
11396;SDS011;5754;43.726;7.416;2024-03-25T00:59:12;100.27;;;95.87;;
11396;SDS011;5754;43.726;7.416;2024-03-25T01:01:47;100.60;;;96.10;;
11396;SDS011;5754;43.726;7.416;2024-03-25T01:04:22;98.67;;;94.33;;
11396;SDS011;5754;43.726;7.416;2024-03-25T01:06:57;98.67;;;94.37;;
11396;SDS011;5754;43.726;7.416;2024-03-25T01:09:33;95.83;;;91.70;;
11396;SDS011;5754;43.726;7.416;2024-03-25T01:12:08;97.93;;;93.53;;
11396;SDS011;5754;43.726;7.416;2024-03-25T01:14:43;93.77;;;89.47;;
11396;SDS011;5754;43.726;7.416;2024-03-25T01:17:17;98.47;;;94.37;;
11396;SDS011;5754;43.726;7.416;2024-03-25T01:19:52;96.30;;;92.17;;
11396;SDS011;5754;43.726;7.416;2024-03-25T01:22:26;99.20;;;95.00;;
11396;SDS011;5754;43.726;7.416;2024-03-25T01:25:01;98.80;;;94.60;;
11396;SDS011;5754;43.726;7.416;2024-03-25T01:27:36;97.60;;;93.50;;
11396;SDS011;5754;43.726;7.416;2024-03-25T01:30:11;96.23;;;92.13;;
11396;SDS011;5754;43.726;7.416;2024-03-25T01:32:45;94.00;;;90.00;;
11396;SDS011;5754;43.726;7.416;2024-03-25T01:35:23;96.50;;;92.30;;
11396;SDS011;5754;43.726;7.416;2024-03-25T01:37:58;95.57;;;91.37;;
11396;SDS011;5754;43.726;7.416;2024-03-25T01:40:33;98.57;;;94.37;;
11396;SDS011;5754;43.726;7.416;2024-03-25T01:43:07;95.83;;;91.63;;
11396;SDS011;5754;43.726;7.416;2024-03-25T01:45:43;97.13;;;93.03;;
11396;SDS011;5754;43.726;7.416;2024-03-25T01:48:19;96.43;;;92.03;;
11396;SDS011;5754;43.726;7.416;2024-03-25T01:50:55;98.07;;;93.87;;
11396;SDS011;5754;43.726;7.416;2024-03-25T01:53:31;96.53;;;92.43;;
11396;SDS011;5754;43.726;7.416;2024-03-25T01:56:07;101.17;;;96.77;;
11396;SDS011;5754;43.726;7.416;2024-03-25T01:58:42;96.03;;;91.73;;
11396;SDS011;5754;43.726;7.416;2024-03-25T02:01:18;95.60;;;91.33;;
11396;SDS011;5754;43.726;7.416;2024-03-25T02:03:54;95.73;;;91.57;;
11396;SDS011;5754;43.726;7.416;2024-03-25T02:06:31;97.13;;;93.00;;
11396;SDS011;5754;43.726;7.416;2024-03-25T02:09:07;97.97;;;93.27;;
11396;SDS011;5754;43.726;7.416;2024-03-25T02:11:43;99.87;;;95.30;;
11396;SDS011;5754;43.726;7.416;2024-03-25T02:14:18;95.70;;;91.60;;
11396;SDS011;5754;43.726;7.416;2024-03-25T02:16:53;94.93;;;90.60;;
11396;SDS011;5754;43.726;7.416;2024-03-25T02:19:28;96.87;;;92.67;;
11396;SDS011;5754;43.726;7.416;2024-03-25T02:22:05;94.37;;;90.17;;
11396;SDS011;5754;43.726;7.416;2024-03-25T02:24:39;97.10;;;93.00;;
11396;SDS011;5754;43.726;7.416;2024-03-25T02:27:14;94.83;;;90.83;;
11396;SDS011;5754;43.726;7.416;2024-03-25T02:29:49;94.00;;;89.70;;
11396;SDS011;5754;43.726;7.416;2024-03-25T02:32:25;94.63;;;90.53;;
11396;SDS011;5754;43.726;7.416;2024-03-25T02:34:59;92.67;;;88.67;;
11396;SDS011;5754;43.726;7.416;2024-03-25T02:37:39;93.60;;;89.30;;
11396;SDS011;5754;43.726;7.416;2024-03-25T02:40:15;91.87;;;87.77;;
11396;SDS011;5754;43.726;7.416;2024-03-25T02:42:50;92.90;;;88.90;;
11396;SDS011;5754;43.726;7.416;2024-03-25T02:45:24;93.77;;;89.67;;
11396;SDS011;5754;43.726;7.416;2024-03-25T02:48:00;94.07;;;90.03;;
11396;SDS011;5754;43.726;7.416;2024-03-25T02:50:35;93.20;;;89.13;;
11396;SDS011;5754;43.726;7.416;2024-03-25T02:53:09;95.10;;;90.97;;
11396;SDS011;5754;43.726;7.416;2024-03-25T02:55:45;92.87;;;88.93;;
11396;SDS011;5754;43.726;7.416;2024-03-25T02:58:19;94.80;;;90.77;;
11396;SDS011;5754;43.726;7.416;2024-03-25T03:00:53;93.60;;;89.50;;
11396;SDS011;5754;43.726;7.416;2024-03-25T03:03:27;93.37;;;89.40;;
11396;SDS011;5754;43.726;7.416;2024-03-25T03:06:02;93.13;;;89.23;;
11396;SDS011;5754;43.726;7.416;2024-03-25T03:08:37;95.57;;;91.47;;
11396;SDS011;5754;43.726;7.416;2024-03-25T03:11:12;94.70;;;90.70;;
11396;SDS011;5754;43.726;7.416;2024-03-25T03:13:47;95.53;;;91.53;;
11396;SDS011;5754;43.726;7.416;2024-03-25T03:16:21;94.07;;;89.97;;
11396;SDS011;5754;43.726;7.416;2024-03-25T03:18:57;96.47;;;92.47;;
11396;SDS011;5754;43.726;7.416;2024-03-25T03:21:31;94.33;;;90.43;;
11396;SDS011;5754;43.726;7.416;2024-03-25T03:24:06;93.13;;;89.27;;
11396;SDS011;5754;43.726;7.416;2024-03-25T03:26:41;93.20;;;89.30;;
11396;SDS011;5754;43.726;7.416;2024-03-25T03:29:17;92.43;;;88.53;;
11396;SDS011;5754;43.726;7.416;2024-03-25T03:31:51;95.37;;;91.37;;
11396;SDS011;5754;43.726;7.416;2024-03-25T03:34:28;94.93;;;90.57;;
11396;SDS011;5754;43.726;7.416;2024-03-25T03:37:02;94.80;;;90.77;;
11396;SDS011;5754;43.726;7.416;2024-03-25T03:39:39;93.47;;;89.37;;
11396;SDS011;5754;43.726;7.416;2024-03-25T03:42:14;95.30;;;91.17;;
11396;SDS011;5754;43.726;7.416;2024-03-25T03:44:50;93.53;;;89.50;;
11396;SDS011;5754;43.726;7.416;2024-03-25T03:47:25;91.90;;;88.10;;
11396;SDS011;5754;43.726;7.416;2024-03-25T03:50:00;97.23;;;93.10;;
11396;SDS011;5754;43.726;7.416;2024-03-25T03:52:35;96.10;;;91.90;;
11396;SDS011;5754;43.726;7.416;2024-03-25T03:55:10;94.40;;;90.20;;
11396;SDS011;5754;43.726;7.416;2024-03-25T03:57:46;92.67;;;88.77;;
11396;SDS011;5754;43.726;7.416;2024-03-25T04:00:21;100.07;;;95.63;;
11396;SDS011;5754;43.726;7.416;2024-03-25T04:02:55;92.77;;;88.87;;
11396;SDS011;5754;43.726;7.416;2024-03-25T04:05:30;94.87;;;90.87;;
11396;SDS011;5754;43.726;7.416;2024-03-25T04:08:08;93.37;;;89.40;;
11396;SDS011;5754;43.726;7.416;2024-03-25T04:10:43;95.10;;;91.00;;
11396;SDS011;5754;43.726;7.416;2024-03-25T04:13:18;97.23;;;93.03;;
11396;SDS011;5754;43.726;7.416;2024-03-25T04:15:53;93.63;;;89.63;;
11396;SDS011;5754;43.726;7.416;2024-03-25T04:18:27;96.03;;;91.97;;
11396;SDS011;5754;43.726;7.416;2024-03-25T04:21:02;93.93;;;89.90;;
11396;SDS011;5754;43.726;7.416;2024-03-25T04:23:37;95.40;;;91.40;;
11396;SDS011;5754;43.726;7.416;2024-03-25T04:26:13;94.90;;;90.90;;
11396;SDS011;5754;43.726;7.416;2024-03-25T04:28:47;94.90;;;90.93;;
11396;SDS011;5754;43.726;7.416;2024-03-25T04:31:23;92.63;;;88.77;;
11396;SDS011;5754;43.726;7.416;2024-03-25T04:33:57;93.63;;;89.37;;
11396;SDS011;5754;43.726;7.416;2024-03-25T04:36:32;97.20;;;93.00;;
11396;SDS011;5754;43.726;7.416;2024-03-25T04:39:06;94.17;;;90.17;;
11396;SDS011;5754;43.726;7.416;2024-03-25T04:44:23;98.10;;;93.90;;
11396;SDS011;5754;43.726;7.416;2024-03-25T04:46:57;94.13;;;90.20;;
11396;SDS011;5754;43.726;7.416;2024-03-25T04:49:32;94.27;;;90.27;;
11396;SDS011;5754;43.726;7.416;2024-03-25T04:52:09;95.87;;;91.83;;
11396;SDS011;5754;43.726;7.416;2024-03-25T04:54:44;94.33;;;90.23;;
11396;SDS011;5754;43.726;7.416;2024-03-25T04:57:20;94.77;;;90.77;;
11396;SDS011;5754;43.726;7.416;2024-03-25T04:59:55;94.60;;;90.60;;
11396;SDS011;5754;43.726;7.416;2024-03-25T05:02:32;92.37;;;88.47;;
11396;SDS011;5754;43.726;7.416;2024-03-25T05:05:06;93.90;;;90.00;;
11396;SDS011;5754;43.726;7.416;2024-03-25T05:07:42;92.50;;;88.70;;
11396;SDS011;5754;43.726;7.416;2024-03-25T05:10:16;96.43;;;92.40;;
11396;SDS011;5754;43.726;7.416;2024-03-25T05:12:50;94.73;;;90.73;;
11396;SDS011;5754;43.726;7.416;2024-03-25T05:15:25;92.60;;;88.40;;
11396;SDS011;5754;43.726;7.416;2024-03-25T05:18:02;95.33;;;91.33;;
11396;SDS011;5754;43.726;7.416;2024-03-25T05:20:37;93.93;;;90.00;;
11396;SDS011;5754;43.726;7.416;2024-03-25T05:23:12;96.63;;;92.63;;
11396;SDS011;5754;43.726;7.416;2024-03-25T05:25:50;92.90;;;88.80;;
11396;SDS011;5754;43.726;7.416;2024-03-25T05:28:25;90.77;;;86.90;;
11396;SDS011;5754;43.726;7.416;2024-03-25T05:31:07;93.07;;;88.97;;
11396;SDS011;5754;43.726;7.416;2024-03-25T05:33:42;94.20;;;90.17;;
11396;SDS011;5754;43.726;7.416;2024-03-25T05:36:17;94.53;;;90.53;;
11396;SDS011;5754;43.726;7.416;2024-03-25T05:38:54;95.40;;;91.40;;
11396;SDS011;5754;43.726;7.416;2024-03-25T05:41:31;96.70;;;92.60;;
11396;SDS011;5754;43.726;7.416;2024-03-25T05:44:05;96.23;;;91.93;;
11396;SDS011;5754;43.726;7.416;2024-03-25T05:46:40;99.83;;;95.47;;
11396;SDS011;5754;43.726;7.416;2024-03-25T05:49:15;96.17;;;91.97;;
11396;SDS011;5754;43.726;7.416;2024-03-25T05:51:50;96.33;;;92.13;;
11396;SDS011;5754;43.726;7.416;2024-03-25T05:54:26;96.63;;;92.63;;
11396;SDS011;5754;43.726;7.416;2024-03-25T05:57:01;93.57;;;89.70;;
11396;SDS011;5754;43.726;7.416;2024-03-25T05:59:35;96.00;;;92.10;;
11396;SDS011;5754;43.726;7.416;2024-03-25T06:02:10;95.53;;;91.63;;
11396;SDS011;5754;43.726;7.416;2024-03-25T06:04:45;93.63;;;89.63;;
11396;SDS011;5754;43.726;7.416;2024-03-25T06:07:20;98.37;;;94.33;;
11396;SDS011;5754;43.726;7.416;2024-03-25T06:09:55;108.00;;;101.00;;
11396;SDS011;5754;43.726;7.416;2024-03-25T06:12:31;94.47;;;90.57;;
11396;SDS011;5754;43.726;7.416;2024-03-25T06:15:06;96.97;;;92.77;;
11396;SDS011;5754;43.726;7.416;2024-03-25T06:17:41;96.83;;;92.83;;
11396;SDS011;5754;43.726;7.416;2024-03-25T06:20:15;98.40;;;94.30;;
11396;SDS011;5754;43.726;7.416;2024-03-25T06:22:50;97.80;;;93.80;;
11396;SDS011;5754;43.726;7.416;2024-03-25T06:25:25;94.80;;;90.90;;
11396;SDS011;5754;43.726;7.416;2024-03-25T06:28:00;98.97;;;94.87;;
11396;SDS011;5754;43.726;7.416;2024-03-25T06:30:35;95.07;;;91.07;;
11396;SDS011;5754;43.726;7.416;2024-03-25T06:33:29;98.45;;;94.15;;
11396;SDS011;5754;43.726;7.416;2024-03-25T06:36:23;94.78;;;90.85;;
11396;SDS011;5754;43.726;7.416;2024-03-25T06:38:57;96.63;;;92.72;;
11396;SDS011;5754;43.726;7.416;2024-03-25T06:41:32;95.65;;;91.55;;
11396;SDS011;5754;43.726;7.416;2024-03-25T06:44:06;96.53;;;92.45;;
11396;SDS011;5754;43.726;7.416;2024-03-25T06:46:41;96.50;;;92.12;;
11396;SDS011;5754;43.726;7.416;2024-03-25T06:49:15;95.68;;;91.78;;
11396;SDS011;5754;43.726;7.416;2024-03-25T06:51:50;96.85;;;92.85;;
11396;SDS011;5754;43.726;7.416;2024-03-25T06:54:25;95.87;;;91.97;;
11396;SDS011;5754;43.726;7.416;2024-03-25T06:57:02;97.62;;;93.62;;
11396;SDS011;5754;43.726;7.416;2024-03-25T06:59:37;97.00;;;93.10;;
11396;SDS011;5754;43.726;7.416;2024-03-25T07:02:13;96.78;;;92.78;;
11396;SDS011;5754;43.726;7.416;2024-03-25T07:04:47;99.37;;;95.07;;
11396;SDS011;5754;43.726;7.416;2024-03-25T07:07:22;98.55;;;94.40;;
11396;SDS011;5754;43.726;7.416;2024-03-25T07:09:57;98.12;;;93.93;;
11396;SDS011;5754;43.726;7.416;2024-03-25T07:12:31;100.62;;;96.53;;
11396;SDS011;5754;43.726;7.416;2024-03-25T07:15:07;100.20;;;96.10;;
11396;SDS011;5754;43.726;7.416;2024-03-25T07:17:42;98.70;;;94.60;;
11396;SDS011;5754;43.726;7.416;2024-03-25T07:20:17;97.97;;;93.87;;
11396;SDS011;5754;43.726;7.416;2024-03-25T07:22:53;98.15;;;94.15;;
11396;SDS011;5754;43.726;7.416;2024-03-25T07:25:31;98.65;;;94.65;;
11396;SDS011;5754;43.726;7.416;2024-03-25T07:28:05;98.07;;;94.07;;
11396;SDS011;5754;43.726;7.416;2024-03-25T07:30:41;98.07;;;93.97;;
11396;SDS011;5754;43.726;7.416;2024-03-25T07:33:18;96.40;;;92.40;;
11396;SDS011;5754;43.726;7.416;2024-03-25T07:35:55;97.82;;;93.80;;
11396;SDS011;5754;43.726;7.416;2024-03-25T07:38:31;97.43;;;93.18;;
11396;SDS011;5754;43.726;7.416;2024-03-25T07:41:05;98.05;;;93.65;;
11396;SDS011;5754;43.726;7.416;2024-03-25T07:43:40;98.95;;;94.75;;
11396;SDS011;5754;43.726;7.416;2024-03-25T07:46:15;99.10;;;94.90;;
11396;SDS011;5754;43.726;7.416;2024-03-25T07:48:50;99.53;;;95.32;;
11396;SDS011;5754;43.726;7.416;2024-03-25T07:51:26;97.62;;;93.43;;
11396;SDS011;5754;43.726;7.416;2024-03-25T07:54:01;100.30;;;96.00;;
11396;SDS011;5754;43.726;7.416;2024-03-25T07:56:38;101.53;;;97.18;;
11396;SDS011;5754;43.726;7.416;2024-03-25T07:59:13;101.10;;;96.80;;
11396;SDS011;5754;43.726;7.416;2024-03-25T08:01:48;101.00;;;96.80;;
11396;SDS011;5754;43.726;7.416;2024-03-25T08:04:22;96.80;;;92.50;;
11396;SDS011;5754;43.726;7.416;2024-03-25T08:06:58;96.40;;;92.40;;
11396;SDS011;5754;43.726;7.416;2024-03-25T08:09:33;99.43;;;95.23;;
11396;SDS011;5754;43.726;7.416;2024-03-25T08:12:09;99.73;;;95.63;;
11396;SDS011;5754;43.726;7.416;2024-03-25T08:14:43;99.20;;;95.10;;
11396;SDS011;5754;43.726;7.416;2024-03-25T08:17:19;96.87;;;92.70;;
11396;SDS011;5754;43.726;7.416;2024-03-25T08:19:54;97.30;;;93.17;;
11396;SDS011;5754;43.726;7.416;2024-03-25T08:22:29;98.90;;;94.70;;
11396;SDS011;5754;43.726;7.416;2024-03-25T08:25:03;101.33;;;97.17;;
11396;SDS011;5754;43.726;7.416;2024-03-25T08:27:39;99.13;;;94.97;;
11396;SDS011;5754;43.726;7.416;2024-03-25T08:30:14;98.23;;;94.07;;
11396;SDS011;5754;43.726;7.416;2024-03-25T08:32:48;101.27;;;97.07;;
11396;SDS011;5754;43.726;7.416;2024-03-25T08:35:23;99.87;;;95.57;;
11396;SDS011;5754;43.726;7.416;2024-03-25T08:37:58;98.00;;;93.83;;
11396;SDS011;5754;43.726;7.416;2024-03-25T08:40:32;97.93;;;93.73;;
11396;SDS011;5754;43.726;7.416;2024-03-25T08:43:07;100.03;;;95.77;;
11396;SDS011;5754;43.726;7.416;2024-03-25T08:45:42;97.17;;;93.07;;
11396;SDS011;5754;43.726;7.416;2024-03-25T08:48:18;97.07;;;92.87;;
11396;SDS011;5754;43.726;7.416;2024-03-25T08:50:52;97.37;;;93.27;;
11396;SDS011;5754;43.726;7.416;2024-03-25T08:53:27;95.57;;;91.47;;
11396;SDS011;5754;43.726;7.416;2024-03-25T08:56:01;96.33;;;92.13;;
11396;SDS011;5754;43.726;7.416;2024-03-25T08:58:36;97.13;;;92.87;;
11396;SDS011;5754;43.726;7.416;2024-03-25T09:01:11;95.77;;;91.77;;
11396;SDS011;5754;43.726;7.416;2024-03-25T09:03:50;94.17;;;90.17;;
11396;SDS011;5754;43.726;7.416;2024-03-25T09:06:28;95.87;;;91.70;;
11396;SDS011;5754;43.726;7.416;2024-03-25T09:09:03;97.50;;;93.10;;
11396;SDS011;5754;43.726;7.416;2024-03-25T09:11:56;94.33;;;89.93;;
11396;SDS011;5754;43.726;7.416;2024-03-25T09:14:30;96.60;;;92.23;;
11396;SDS011;5754;43.726;7.416;2024-03-25T09:17:07;94.47;;;90.23;;
11396;SDS011;5754;43.726;7.416;2024-03-25T09:19:41;92.17;;;87.97;;
11396;SDS011;5754;43.726;7.416;2024-03-25T09:22:16;96.57;;;92.00;;
11396;SDS011;5754;43.726;7.416;2024-03-25T09:24:51;95.50;;;91.10;;
11396;SDS011;5754;43.726;7.416;2024-03-25T09:27:26;95.53;;;90.60;;
11396;SDS011;5754;43.726;7.416;2024-03-25T09:30:02;96.90;;;92.40;;
11396;SDS011;5754;43.726;7.416;2024-03-25T09:32:41;94.83;;;90.43;;
11396;SDS011;5754;43.726;7.416;2024-03-25T09:35:17;94.33;;;90.03;;
11396;SDS011;5754;43.726;7.416;2024-03-25T09:37:52;94.13;;;89.83;;
11396;SDS011;5754;43.726;7.416;2024-03-25T09:40:27;95.63;;;91.43;;
11396;SDS011;5754;43.726;7.416;2024-03-25T09:43:06;97.10;;;92.70;;
11396;SDS011;5754;43.726;7.416;2024-03-25T09:45:42;94.90;;;90.63;;
11396;SDS011;5754;43.726;7.416;2024-03-25T09:48:21;96.13;;;92.07;;
11396;SDS011;5754;43.726;7.416;2024-03-25T09:50:58;95.53;;;91.20;;
11396;SDS011;5754;43.726;7.416;2024-03-25T09:53:34;94.97;;;90.57;;
11396;SDS011;5754;43.726;7.416;2024-03-25T09:56:09;94.87;;;90.77;;
11396;SDS011;5754;43.726;7.416;2024-03-25T09:58:44;95.50;;;91.10;;
11396;SDS011;5754;43.726;7.416;2024-03-25T10:01:20;100.47;;;95.97;;
11396;SDS011;5754;43.726;7.416;2024-03-25T10:03:54;98.50;;;94.10;;
11396;SDS011;5754;43.726;7.416;2024-03-25T10:06:29;99.87;;;95.30;;
11396;SDS011;5754;43.726;7.416;2024-03-25T10:09:05;95.57;;;91.03;;
11396;SDS011;5754;43.726;7.416;2024-03-25T10:11:40;96.03;;;91.83;;
11396;SDS011;5754;43.726;7.416;2024-03-25T10:14:15;96.00;;;91.70;;
11396;SDS011;5754;43.726;7.416;2024-03-25T10:16:49;94.80;;;90.40;;
11396;SDS011;5754;43.726;7.416;2024-03-25T10:19:25;94.10;;;90.03;;
11396;SDS011;5754;43.726;7.416;2024-03-25T10:22:09;95.60;;;91.23;;
11396;SDS011;5754;43.726;7.416;2024-03-25T10:24:44;96.27;;;91.97;;
11396;SDS011;5754;43.726;7.416;2024-03-25T10:27:23;95.23;;;90.57;;
11396;SDS011;5754;43.726;7.416;2024-03-25T10:29:58;94.53;;;90.20;;
11396;SDS011;5754;43.726;7.416;2024-03-25T10:32:34;97.73;;;93.13;;
11396;SDS011;5754;43.726;7.416;2024-03-25T10:35:10;96.00;;;91.70;;
11396;SDS011;5754;43.726;7.416;2024-03-25T10:37:44;96.00;;;91.70;;
11396;SDS011;5754;43.726;7.416;2024-03-25T10:40:19;95.97;;;91.13;;
11396;SDS011;5754;43.726;7.416;2024-03-25T10:43:00;96.00;;;91.30;;
11396;SDS011;5754;43.726;7.416;2024-03-25T10:45:35;94.17;;;89.77;;
11396;SDS011;5754;43.726;7.416;2024-03-25T10:48:16;94.13;;;89.40;;
11396;SDS011;5754;43.726;7.416;2024-03-25T10:50:51;97.10;;;92.03;;
11396;SDS011;5754;43.726;7.416;2024-03-25T10:53:28;96.43;;;91.90;;
11396;SDS011;5754;43.726;7.416;2024-03-25T10:56:03;94.07;;;89.17;;
11396;SDS011;5754;43.726;7.416;2024-03-25T10:58:40;97.13;;;92.30;;
11396;SDS011;5754;43.726;7.416;2024-03-25T11:01:15;96.93;;;91.97;;
11396;SDS011;5754;43.726;7.416;2024-03-25T11:03:51;95.10;;;89.90;;
11396;SDS011;5754;43.726;7.416;2024-03-25T11:06:26;93.73;;;88.50;;
11396;SDS011;5754;43.726;7.416;2024-03-25T11:09:01;94.73;;;90.00;;
11396;SDS011;5754;43.726;7.416;2024-03-25T11:11:37;93.60;;;88.67;;
11396;SDS011;5754;43.726;7.416;2024-03-25T11:14:15;94.63;;;89.80;;
11396;SDS011;5754;43.726;7.416;2024-03-25T11:16:57;92.13;;;87.20;;
11396;SDS011;5754;43.726;7.416;2024-03-25T11:19:33;93.60;;;88.80;;
11396;SDS011;5754;43.726;7.416;2024-03-25T11:22:10;94.77;;;89.60;;
11396;SDS011;5754;43.726;7.416;2024-03-25T11:24:45;95.77;;;90.73;;
11396;SDS011;5754;43.726;7.416;2024-03-25T11:27:22;94.10;;;89.30;;
11396;SDS011;5754;43.726;7.416;2024-03-25T11:29:56;96.57;;;91.40;;
11396;SDS011;5754;43.726;7.416;2024-03-25T11:37:01;95.10;;;90.30;;
11396;SDS011;5754;43.726;7.416;2024-03-25T11:39:38;92.80;;;88.17;;
11396;SDS011;5754;43.726;7.416;2024-03-25T11:42:13;91.90;;;87.07;;
11396;SDS011;5754;43.726;7.416;2024-03-25T11:44:48;93.70;;;88.30;;
11396;SDS011;5754;43.726;7.416;2024-03-25T11:47:26;93.77;;;88.97;;
11396;SDS011;5754;43.726;7.416;2024-03-25T11:50:06;92.60;;;87.37;;
11396;SDS011;5754;43.726;7.416;2024-03-25T11:52:44;95.67;;;90.40;;
11396;SDS011;5754;43.726;7.416;2024-03-25T11:55:19;94.00;;;89.13;;
11396;SDS011;5754;43.726;7.416;2024-03-25T11:57:56;91.10;;;86.57;;
11396;SDS011;5754;43.726;7.416;2024-03-25T12:00:31;94.53;;;89.23;;
11396;SDS011;5754;43.726;7.416;2024-03-25T12:03:06;93.43;;;88.73;;
11396;SDS011;5754;43.726;7.416;2024-03-25T12:05:45;95.33;;;90.13;;
11396;SDS011;5754;43.726;7.416;2024-03-25T12:08:19;95.50;;;90.57;;
11396;SDS011;5754;43.726;7.416;2024-03-25T12:10:59;95.20;;;89.90;;
11396;SDS011;5754;43.726;7.416;2024-03-25T12:13:52;94.50;;;89.13;;
11396;SDS011;5754;43.726;7.416;2024-03-25T12:16:28;92.90;;;87.67;;
11396;SDS011;5754;43.726;7.416;2024-03-25T12:19:04;95.40;;;90.50;;
11396;SDS011;5754;43.726;7.416;2024-03-25T12:21:39;93.70;;;88.70;;
11396;SDS011;5754;43.726;7.416;2024-03-25T12:24:13;92.80;;;87.73;;
11396;SDS011;5754;43.726;7.416;2024-03-25T12:26:49;92.07;;;87.37;;
11396;SDS011;5754;43.726;7.416;2024-03-25T12:29:23;92.33;;;87.33;;
11396;SDS011;5754;43.726;7.416;2024-03-25T12:31:58;92.57;;;88.03;;
11396;SDS011;5754;43.726;7.416;2024-03-25T12:34:35;93.00;;;88.27;;
11396;SDS011;5754;43.726;7.416;2024-03-25T12:37:14;93.13;;;88.17;;
11396;SDS011;5754;43.726;7.416;2024-03-25T12:39:50;92.03;;;86.93;;
11396;SDS011;5754;43.726;7.416;2024-03-25T12:42:26;87.53;;;82.50;;
11396;SDS011;5754;43.726;7.416;2024-03-25T12:45:00;92.70;;;87.40;;
11396;SDS011;5754;43.726;7.416;2024-03-25T12:47:37;89.30;;;84.33;;
11396;SDS011;5754;43.726;7.416;2024-03-25T12:50:12;87.83;;;82.93;;
11396;SDS011;5754;43.726;7.416;2024-03-25T12:52:46;87.13;;;81.93;;
11396;SDS011;5754;43.726;7.416;2024-03-25T12:55:20;89.00;;;83.87;;
11396;SDS011;5754;43.726;7.416;2024-03-25T12:57:55;86.23;;;81.30;;
11396;SDS011;5754;43.726;7.416;2024-03-25T13:00:30;87.07;;;82.47;;
11396;SDS011;5754;43.726;7.416;2024-03-25T13:03:05;87.97;;;83.23;;
11396;SDS011;5754;43.726;7.416;2024-03-25T13:05:42;88.33;;;82.93;;
11396;SDS011;5754;43.726;7.416;2024-03-25T13:08:17;86.80;;;81.87;;
11396;SDS011;5754;43.726;7.416;2024-03-25T13:10:52;84.63;;;79.83;;
11396;SDS011;5754;43.726;7.416;2024-03-25T13:13:27;86.23;;;81.30;;
11396;SDS011;5754;43.726;7.416;2024-03-25T13:16:02;85.67;;;80.63;;
11396;SDS011;5754;43.726;7.416;2024-03-25T13:18:37;85.00;;;80.07;;
11396;SDS011;5754;43.726;7.416;2024-03-25T13:21:12;85.60;;;80.33;;
11396;SDS011;5754;43.726;7.416;2024-03-25T13:23:46;82.33;;;77.33;;
11396;SDS011;5754;43.726;7.416;2024-03-25T13:26:20;83.17;;;78.20;;
11396;SDS011;5754;43.726;7.416;2024-03-25T13:28:57;81.97;;;76.93;;
11396;SDS011;5754;43.726;7.416;2024-03-25T13:31:32;86.13;;;81.13;;
11396;SDS011;5754;43.726;7.416;2024-03-25T13:34:06;87.43;;;81.93;;
11396;SDS011;5754;43.726;7.416;2024-03-25T13:36:40;84.47;;;79.53;;
11396;SDS011;5754;43.726;7.416;2024-03-25T13:39:16;87.27;;;82.40;;
11396;SDS011;5754;43.726;7.416;2024-03-25T13:41:51;87.33;;;82.67;;
11396;SDS011;5754;43.726;7.416;2024-03-25T13:44:27;86.00;;;81.10;;
11396;SDS011;5754;43.726;7.416;2024-03-25T13:47:01;86.73;;;82.03;;
11396;SDS011;5754;43.726;7.416;2024-03-25T13:49:37;86.33;;;80.73;;
11396;SDS011;5754;43.726;7.416;2024-03-25T13:52:11;86.27;;;81.67;;
11396;SDS011;5754;43.726;7.416;2024-03-25T13:54:47;87.73;;;83.20;;
11396;SDS011;5754;43.726;7.416;2024-03-25T13:57:22;85.47;;;80.73;;
11396;SDS011;5754;43.726;7.416;2024-03-25T13:59:56;77.80;;;72.97;;
11396;SDS011;5754;43.726;7.416;2024-03-25T14:02:31;75.57;;;70.73;;
11396;SDS011;5754;43.726;7.416;2024-03-25T14:05:10;74.20;;;69.97;;
11396;SDS011;5754;43.726;7.416;2024-03-25T14:07:44;77.00;;;72.50;;
11396;SDS011;5754;43.726;7.416;2024-03-25T14:10:20;81.10;;;76.37;;
11396;SDS011;5754;43.726;7.416;2024-03-25T14:12:54;76.73;;;72.47;;
11396;SDS011;5754;43.726;7.416;2024-03-25T14:15:29;79.37;;;74.70;;
11396;SDS011;5754;43.726;7.416;2024-03-25T14:18:04;80.93;;;76.13;;
11396;SDS011;5754;43.726;7.416;2024-03-25T14:20:43;79.43;;;74.90;;
11396;SDS011;5754;43.726;7.416;2024-03-25T14:23:18;73.07;;;68.67;;
11396;SDS011;5754;43.726;7.416;2024-03-25T14:25:53;73.37;;;69.17;;
11396;SDS011;5754;43.726;7.416;2024-03-25T14:28:28;78.27;;;73.37;;
11396;SDS011;5754;43.726;7.416;2024-03-25T14:31:02;76.50;;;71.77;;
11396;SDS011;5754;43.726;7.416;2024-03-25T14:33:37;73.40;;;68.77;;
11396;SDS011;5754;43.726;7.416;2024-03-25T14:36:11;67.93;;;63.87;;
11396;SDS011;5754;43.726;7.416;2024-03-25T14:38:47;66.63;;;62.43;;
11396;SDS011;5754;43.726;7.416;2024-03-25T14:41:21;61.43;;;57.83;;
11396;SDS011;5754;43.726;7.416;2024-03-25T14:43:56;58.77;;;54.30;;
11396;SDS011;5754;43.726;7.416;2024-03-25T14:46:31;57.63;;;53.67;;
11396;SDS011;5754;43.726;7.416;2024-03-25T14:49:05;58.77;;;54.47;;
11396;SDS011;5754;43.726;7.416;2024-03-25T14:51:41;60.97;;;56.23;;
11396;SDS011;5754;43.726;7.416;2024-03-25T14:54:18;57.80;;;54.03;;
11396;SDS011;5754;43.726;7.416;2024-03-25T14:56:54;61.50;;;57.47;;
11396;SDS011;5754;43.726;7.416;2024-03-25T14:59:29;62.33;;;58.77;;
11396;SDS011;5754;43.726;7.416;2024-03-25T15:02:04;64.97;;;60.80;;
11396;SDS011;5754;43.726;7.416;2024-03-25T15:04:39;67.90;;;63.43;;
11396;SDS011;5754;43.726;7.416;2024-03-25T15:07:18;63.60;;;59.73;;
11396;SDS011;5754;43.726;7.416;2024-03-25T15:09:52;67.10;;;62.70;;
11396;SDS011;5754;43.726;7.416;2024-03-25T15:12:27;64.10;;;60.20;;
11396;SDS011;5754;43.726;7.416;2024-03-25T15:15:05;64.27;;;60.13;;
11396;SDS011;5754;43.726;7.416;2024-03-25T15:17:42;61.70;;;57.53;;
11396;SDS011;5754;43.726;7.416;2024-03-25T15:20:16;62.73;;;58.90;;
11396;SDS011;5754;43.726;7.416;2024-03-25T15:25:32;61.93;;;58.03;;
11396;SDS011;5754;43.726;7.416;2024-03-25T15:28:07;55.30;;;51.63;;
11396;SDS011;5754;43.726;7.416;2024-03-25T15:30:42;61.00;;;57.30;;
11396;SDS011;5754;43.726;7.416;2024-03-25T15:33:17;57.63;;;54.10;;